createdAt,value
2023-06-11T00:00:27.615Z,15.50
2023-06-11T00:02:55.723Z,15.70
2023-06-11T00:05:22.923Z,15.90
2023-06-11T00:07:50.178Z,15.40
2023-06-11T00:10:17.290Z,15.50
2023-06-11T00:12:46.941Z,15.40
2023-06-11T00:15:13.714Z,15.50
2023-06-11T00:17:40.495Z,15.50
2023-06-11T00:20:10.909Z,15.50
2023-06-11T00:22:40.678Z,15.60
2023-06-11T00:25:08.914Z,15.50
2023-06-11T00:27:38.948Z,15.50
2023-06-11T00:30:07.309Z,15.40
2023-06-11T00:32:35.053Z,15.40
2023-06-11T00:35:02.462Z,15.40
2023-06-11T00:37:31.778Z,15.80
2023-06-11T00:39:58.585Z,15.30
2023-06-11T00:42:25.375Z,15.20
2023-06-11T00:44:53.105Z,15.20
2023-06-11T00:47:19.829Z,15.20
2023-06-11T00:49:46.865Z,15.20
2023-06-11T00:52:16.780Z,15.20
2023-06-11T00:54:43.689Z,15.00
2023-06-11T00:57:11.413Z,15.10
2023-06-11T00:59:41.330Z,15.00
2023-06-11T01:02:34.901Z,14.90
2023-06-11T01:05:02.595Z,14.90
2023-06-11T01:07:33.570Z,14.80
2023-06-11T01:10:00.521Z,14.70
2023-06-11T01:14:54.513Z,14.70
2023-06-11T01:17:30.625Z,14.60
2023-06-11T01:22:50.349Z,14.60
2023-06-11T01:25:31.298Z,14.60
2023-06-11T01:28:05.033Z,14.50
2023-06-11T01:30:40.607Z,14.50
2023-06-11T01:33:07.441Z,14.50
2023-06-11T01:35:34.885Z,14.40
2023-06-11T01:38:03.538Z,14.40
2023-06-11T01:40:30.562Z,14.40
2023-06-11T01:42:57.528Z,14.40
2023-06-11T01:45:24.632Z,14.30
2023-06-11T01:47:51.756Z,14.20
2023-06-11T01:50:18.988Z,14.20
2023-06-11T01:52:46.581Z,14.20
2023-06-11T01:55:13.568Z,14.20
2023-06-11T01:57:41.633Z,14.20
2023-06-11T02:00:12.280Z,14.20
2023-06-11T02:02:43.543Z,14.20
2023-06-11T02:05:10.568Z,14.20
2023-06-11T02:07:37.507Z,14.10
2023-06-11T02:10:04.392Z,14.10
2023-06-11T02:12:31.145Z,14.10
2023-06-11T02:14:57.900Z,14.10
2023-06-11T02:17:24.631Z,14.10
2023-06-11T02:19:51.370Z,14.10
2023-06-11T02:22:18.295Z,14.10
2023-06-11T02:29:39.848Z,13.90
2023-06-11T02:32:07.575Z,14.00
2023-06-11T02:37:01.697Z,13.90
2023-06-11T02:39:28.702Z,13.70
2023-06-11T02:44:24.303Z,13.80
2023-06-11T02:46:51.002Z,13.80
2023-06-11T02:49:17.753Z,13.60
2023-06-11T02:51:44.480Z,13.70
2023-06-11T02:54:11.271Z,13.70
2023-06-11T02:56:38.393Z,13.70
2023-06-11T03:01:33.497Z,13.70
2023-06-11T03:06:27.628Z,13.70
2023-06-11T03:11:22.751Z,13.60
2023-06-11T03:13:49.501Z,13.70
2023-06-11T03:18:43.821Z,13.50
2023-06-11T03:21:11.390Z,13.50
2023-06-11T03:23:38.207Z,13.60
2023-06-11T03:26:05.046Z,13.70
2023-06-11T03:28:31.843Z,13.60
2023-06-11T03:30:58.617Z,13.60
2023-06-11T03:33:25.532Z,13.70
2023-06-11T03:40:47.058Z,13.70
2023-06-11T03:43:13.858Z,13.90
2023-06-11T03:45:40.575Z,13.70
2023-06-11T03:48:09.205Z,13.80
2023-06-11T03:50:36.286Z,13.80
2023-06-11T03:53:03.081Z,13.80
2023-06-11T03:57:57.922Z,13.90
2023-06-11T04:00:24.770Z,14.00
2023-06-11T04:02:51.775Z,14.00
2023-06-11T04:05:19.003Z,14.10
2023-06-11T04:17:36.152Z,14.30
2023-06-11T04:20:03.857Z,15.00
2023-06-11T04:24:58.283Z,14.60
2023-06-11T04:27:25.008Z,14.70
2023-06-11T04:29:54.146Z,14.90
2023-06-11T04:32:22.250Z,15.70
2023-06-11T04:34:49.850Z,17.10
2023-06-11T04:37:17.321Z,18.10
2023-06-11T04:39:44.070Z,19.00
2023-06-11T04:42:10.787Z,18.80
2023-06-11T04:44:37.665Z,18.60
2023-06-11T04:49:33.599Z,18.30
2023-06-11T04:52:00.634Z,18.40
2023-06-11T04:54:28.533Z,18.10
2023-06-11T04:56:56.095Z,18.10
2023-06-11T05:04:22.768Z,17.80
2023-06-11T05:09:17.377Z,17.60
2023-06-11T05:11:44.761Z,17.60
2023-06-11T05:16:40.527Z,18.10
2023-06-11T05:19:07.411Z,18.00
2023-06-11T05:21:34.392Z,18.10
2023-06-11T05:24:08.534Z,18.00
2023-06-11T05:26:35.938Z,18.10
2023-06-11T05:33:57.886Z,18.50
2023-06-11T05:36:24.709Z,18.50
2023-06-11T05:38:52.917Z,18.40
2023-06-11T05:41:20.402Z,18.70
2023-06-11T05:43:47.886Z,18.90
2023-06-11T06:06:01.298Z,20.20
2023-06-11T06:11:01.551Z,20.30
2023-06-11T06:15:55.687Z,20.40
2023-06-11T06:18:22.508Z,20.50
2023-06-11T06:20:49.654Z,20.70
2023-06-11T06:23:16.628Z,20.80
2023-06-11T06:28:10.628Z,20.50
2023-06-11T06:30:40.036Z,20.60
2023-06-11T06:33:06.994Z,20.50
2023-06-11T06:38:01.351Z,20.30
2023-06-11T06:42:55.896Z,20.50
2023-06-11T06:47:50.084Z,20.90
2023-06-11T06:50:16.985Z,20.90
2023-06-11T06:52:43.933Z,21.20
2023-06-11T06:55:10.860Z,21.30
2023-06-11T06:57:37.721Z,21.50
2023-06-11T07:00:09.249Z,21.50
2023-06-11T07:02:39.344Z,24.10
2023-06-11T07:05:07.144Z,21.60
2023-06-11T07:10:01.089Z,21.80
2023-06-11T07:12:29.009Z,21.70
2023-06-11T07:14:56.131Z,22.00
2023-06-11T07:19:52.055Z,22.10
2023-06-11T07:22:18.828Z,22.30
2023-06-11T07:24:48.288Z,22.20
2023-06-11T07:27:15.606Z,22.40
2023-06-11T07:32:09.596Z,22.50
2023-06-11T07:34:36.546Z,22.50
2023-06-11T07:37:03.709Z,22.50
2023-06-11T07:39:30.666Z,22.60
2023-06-11T07:41:57.522Z,22.90
2023-06-11T07:44:24.306Z,22.80
2023-06-11T07:46:51.438Z,22.30
2023-06-11T07:49:18.302Z,22.50
2023-06-11T07:51:47.227Z,22.70
2023-06-11T07:54:13.960Z,23.10
2023-06-11T07:56:40.749Z,22.90
2023-06-11T07:59:08.040Z,23.20
2023-06-11T08:01:34.927Z,23.20
2023-06-11T08:04:01.704Z,23.20
2023-06-11T08:06:28.746Z,23.20
2023-06-11T08:13:51.846Z,23.20
2023-06-11T08:16:19.486Z,23.60
2023-06-11T08:18:46.308Z,23.20
2023-06-11T08:21:13.020Z,23.10
2023-06-11T08:23:40.441Z,23.50
2023-06-11T08:26:07.838Z,23.50
2023-06-11T08:28:36.061Z,23.90
2023-06-11T08:34:50.983Z,24.10
2023-06-11T08:37:17.748Z,23.80
2023-06-11T08:39:44.419Z,23.80
2023-06-11T08:42:11.780Z,23.90
2023-06-11T08:44:38.854Z,24.10
2023-06-11T08:47:06.025Z,24.20
2023-06-11T08:49:32.746Z,24.10
2023-06-11T08:52:01.736Z,24.20
2023-06-11T08:54:28.439Z,24.20
2023-06-11T08:56:55.126Z,24.40
2023-06-11T08:59:21.812Z,24.30
2023-06-11T09:04:19.956Z,24.50
2023-06-11T09:06:57.380Z,25.10
2023-06-11T09:09:24.076Z,25.40
2023-06-11T09:11:50.802Z,25.20
2023-06-11T09:14:17.493Z,24.50
2023-06-11T09:16:45.698Z,24.80
2023-06-11T09:19:13.919Z,24.70
2023-06-11T09:21:51.857Z,24.90
2023-06-11T09:24:20.614Z,24.80
2023-06-11T09:26:55.374Z,25.00
2023-06-11T09:29:27.991Z,25.00
2023-06-11T09:32:19.555Z,22.00
2023-06-11T09:34:57.313Z,24.80
2023-06-11T09:37:24.161Z,24.80
2023-06-11T09:42:28.339Z,25.10
2023-06-11T09:45:01.545Z,25.00
2023-06-11T09:47:29.697Z,27.10
2023-06-11T09:49:56.675Z,25.90
2023-06-11T09:52:24.116Z,26.20
2023-06-11T09:54:51.755Z,26.10
2023-06-11T09:57:18.649Z,25.40
2023-06-11T09:59:45.998Z,25.20
2023-06-11T10:02:12.717Z,25.30
2023-06-11T10:04:40.937Z,25.90
2023-06-11T10:07:08.229Z,25.80
2023-06-11T10:09:34.995Z,25.40
2023-06-11T10:12:01.751Z,25.30
2023-06-11T10:14:28.557Z,25.10
2023-06-11T10:16:55.786Z,24.70
2023-06-11T10:19:25.549Z,24.40
2023-06-11T10:21:53.102Z,25.00
2023-06-11T10:24:23.847Z,25.40
2023-06-11T10:27:09.982Z,25.40
2023-06-11T10:29:40.759Z,25.00
2023-06-11T10:32:23.385Z,24.90
2023-06-11T10:35:05.880Z,25.00
2023-06-11T10:37:38.784Z,25.20
2023-06-11T10:40:09.588Z,25.10
2023-06-11T10:42:40.480Z,25.20
2023-06-11T10:45:13.976Z,25.20
2023-06-11T10:47:44.756Z,24.50
2023-06-11T10:50:13.394Z,24.60
2023-06-11T10:52:53.346Z,25.40
2023-06-11T10:55:21.686Z,25.30
2023-06-11T10:57:54.740Z,24.10
2023-06-11T11:00:21.791Z,25.00
2023-06-11T11:02:48.843Z,24.10
2023-06-11T11:05:15.675Z,27.10
2023-06-11T11:07:45.769Z,24.60
2023-06-11T11:10:13.404Z,24.60
2023-06-11T11:12:44.196Z,24.50
2023-06-11T11:15:12.064Z,24.20
2023-06-11T11:17:42.603Z,24.10
2023-06-11T11:20:18.413Z,24.00
2023-06-11T11:22:55.466Z,24.70
2023-06-11T11:27:50.107Z,26.20
2023-06-11T11:30:17.432Z,24.60
2023-06-11T11:32:44.244Z,25.40
2023-06-11T11:35:20.125Z,25.50
2023-06-11T11:37:47.109Z,25.90
2023-06-11T11:40:14.503Z,25.90
2023-06-11T11:42:47.344Z,25.90
2023-06-11T11:45:15.318Z,25.80
2023-06-11T11:47:44.096Z,25.40
2023-06-11T11:50:19.505Z,25.80
2023-06-11T11:55:13.896Z,25.70
2023-06-11T11:57:41.485Z,25.00
2023-06-11T12:00:09.551Z,24.60
2023-06-11T12:02:43.204Z,25.10
2023-06-11T12:05:16.937Z,25.70
2023-06-11T12:07:52.562Z,25.10
2023-06-11T12:10:19.355Z,25.30
2023-06-11T12:15:14.146Z,25.00
2023-06-11T12:17:41.847Z,25.20
2023-06-11T12:20:09.601Z,25.90
2023-06-11T12:22:36.806Z,26.20
2023-06-11T12:25:03.899Z,25.50
2023-06-11T12:27:30.893Z,25.40
2023-06-11T12:29:58.503Z,25.30
2023-06-11T12:39:49.140Z,24.40
2023-06-11T12:44:48.882Z,26.00
2023-06-11T12:47:16.206Z,26.00
2023-06-11T12:49:42.947Z,26.30
2023-06-11T12:52:11.689Z,28.00
2023-06-11T12:54:38.717Z,26.30
2023-06-11T12:57:06.081Z,26.10
2023-06-11T12:59:32.854Z,24.90
2023-06-11T13:01:59.623Z,25.60
2023-06-11T13:04:26.388Z,25.60
2023-06-11T13:09:20.348Z,26.20
2023-06-11T13:11:47.037Z,27.90
2023-06-11T13:14:16.136Z,25.90
2023-06-11T13:16:44.110Z,25.90
2023-06-11T13:21:37.933Z,26.30
2023-06-11T13:24:04.710Z,26.60
2023-06-11T13:26:32.518Z,26.90
2023-06-11T13:31:28.213Z,25.70
2023-06-11T13:33:54.951Z,25.00
2023-06-11T13:36:22.157Z,24.50
2023-06-11T13:41:16.054Z,25.70
2023-06-11T13:43:42.718Z,26.00
2023-06-11T13:46:09.598Z,26.00
2023-06-11T13:48:36.322Z,26.70
2023-06-11T13:51:03.049Z,26.70
2023-06-11T13:53:29.851Z,26.70
2023-06-11T13:55:56.665Z,26.60
2023-06-11T13:58:23.431Z,26.60
2023-06-11T14:03:23.029Z,26.90
2023-06-11T14:05:49.884Z,26.80
2023-06-11T14:08:19.285Z,26.80
2023-06-11T14:10:46.542Z,26.70
2023-06-11T14:13:13.216Z,26.80
2023-06-11T14:15:40.063Z,26.70
2023-06-11T14:20:34.238Z,25.80
2023-06-11T14:23:01.026Z,25.20
2023-06-11T14:25:27.784Z,25.90
2023-06-11T14:30:23.276Z,26.40
2023-06-11T14:32:50.032Z,26.30
2023-06-11T14:35:16.904Z,26.20
2023-06-11T14:37:43.733Z,25.40
2023-06-11T14:40:11.014Z,26.00
2023-06-11T14:42:38.128Z,26.30
2023-06-11T14:47:34.787Z,26.50
2023-06-11T14:50:01.716Z,26.80
2023-06-11T14:52:28.414Z,26.80
2023-06-11T14:57:25.949Z,25.80
2023-06-11T15:10:05.188Z,26.90
2023-06-11T15:12:32.357Z,26.80
2023-06-11T15:15:01.847Z,26.90
2023-06-11T15:17:31.916Z,26.80
2023-06-11T15:20:01.050Z,26.50
2023-06-11T15:22:27.897Z,26.40
2023-06-11T15:24:54.846Z,26.20
2023-06-11T15:27:21.736Z,26.40
2023-06-11T15:29:51.853Z,26.40
2023-06-11T15:32:20.940Z,26.80
2023-06-11T15:34:48.070Z,26.80
2023-06-11T15:37:14.779Z,26.70
2023-06-11T15:39:41.555Z,26.40
2023-06-11T15:42:08.275Z,26.40
2023-06-11T15:44:35.032Z,27.00
2023-06-11T15:47:01.839Z,26.80
2023-06-11T15:49:31.327Z,26.80
2023-06-11T15:51:59.477Z,26.30
2023-06-11T15:54:26.316Z,25.60
2023-06-11T15:56:53.012Z,25.10
2023-06-11T15:59:19.791Z,25.00
2023-06-11T16:04:14.243Z,25.80
2023-06-11T16:06:41.092Z,25.90
2023-06-11T16:09:09.140Z,26.20
2023-06-11T16:11:36.101Z,26.30
2023-06-11T16:14:02.782Z,26.40
2023-06-11T16:16:29.532Z,26.30
2023-06-11T16:18:56.405Z,25.90
2023-06-11T16:21:23.075Z,26.00
2023-06-11T16:23:49.804Z,26.10
2023-06-11T16:26:16.614Z,26.30
2023-06-11T16:28:43.328Z,26.10
2023-06-11T16:31:10.123Z,26.10
2023-06-11T16:33:52.159Z,26.20
2023-06-11T16:36:23.683Z,26.20
2023-06-11T16:38:50.415Z,26.00
2023-06-11T16:43:49.801Z,26.00
2023-06-11T16:46:17.408Z,26.00
2023-06-11T16:51:14.673Z,26.30
2023-06-11T16:53:41.425Z,27.50
2023-06-11T16:56:08.296Z,28.40
2023-06-11T16:58:35.003Z,28.50
2023-06-11T17:01:01.828Z,28.50
2023-06-11T17:03:28.624Z,28.30
2023-06-11T17:05:55.376Z,28.30
2023-06-11T17:08:22.045Z,28.40
2023-06-11T17:10:48.872Z,27.80
2023-06-11T17:13:15.622Z,29.70
2023-06-11T17:15:42.318Z,29.60
2023-06-11T17:18:09.097Z,29.50
2023-06-11T17:20:40.403Z,29.70
2023-06-11T17:23:08.022Z,30.00
2023-06-11T17:25:34.824Z,29.90
2023-06-11T17:28:01.784Z,29.70
2023-06-11T17:30:28.478Z,29.70
2023-06-11T17:37:50.024Z,29.30
2023-06-11T17:40:17.546Z,29.30
2023-06-11T17:42:45.012Z,29.50
2023-06-11T17:45:11.941Z,29.90
2023-06-11T17:47:38.715Z,29.20
2023-06-11T17:50:06.196Z,28.10
2023-06-11T17:52:33.065Z,27.00
2023-06-11T17:54:59.766Z,24.30
2023-06-11T17:57:26.513Z,24.20
2023-06-11T17:59:53.427Z,23.80
2023-06-11T18:04:47.289Z,23.40
2023-06-11T18:07:14.084Z,23.30
2023-06-11T18:09:40.755Z,23.00
2023-06-11T18:12:07.978Z,22.90
2023-06-11T18:14:34.755Z,22.90
2023-06-11T18:17:01.495Z,22.80
2023-06-11T18:19:28.200Z,22.70
2023-06-11T18:29:17.431Z,22.20
2023-06-11T18:31:44.173Z,22.20
2023-06-11T18:34:10.893Z,22.00
2023-06-11T18:36:37.583Z,22.00
2023-06-11T18:41:31.517Z,21.80
2023-06-11T18:46:26.078Z,21.60
2023-06-11T18:48:52.885Z,21.50
2023-06-11T18:53:47.317Z,21.10
2023-06-11T18:56:16.656Z,21.10
2023-06-11T19:01:10.649Z,20.80
2023-06-11T19:03:40.619Z,20.70
2023-06-11T19:08:35.937Z,19.40
2023-06-11T19:11:03.408Z,20.40
2023-06-11T19:13:30.161Z,20.20
2023-06-11T19:20:51.371Z,19.90
2023-06-11T19:25:45.744Z,19.50
2023-06-11T19:28:12.484Z,19.30
2023-06-11T19:30:39.438Z,19.20
2023-06-11T19:33:06.214Z,19.20
2023-06-11T19:35:35.865Z,19.20
2023-06-11T19:38:02.629Z,19.10
2023-06-11T19:40:29.398Z,19.10
2023-06-11T19:42:56.093Z,19.00
2023-06-11T19:47:50.194Z,18.90
2023-06-11T19:50:16.997Z,18.70
2023-06-11T19:55:11.696Z,18.50
2023-06-11T20:00:06.409Z,18.30
2023-06-11T20:05:00.928Z,18.30
2023-06-11T20:09:55.390Z,18.10
2023-06-11T20:14:49.930Z,17.50
2023-06-11T20:17:16.704Z,17.50
2023-06-11T20:22:11.815Z,17.20
2023-06-11T20:27:06.515Z,17.20
2023-06-11T20:29:33.351Z,17.20
2023-06-11T20:34:27.926Z,17.00
2023-06-11T20:36:54.778Z,17.20
2023-06-11T20:39:21.572Z,17.30
2023-06-11T20:41:48.306Z,17.20
2023-06-11T20:44:15.164Z,17.20
2023-06-11T20:46:42.004Z,17.20
2023-06-11T20:49:09.831Z,17.30
2023-06-11T20:54:04.039Z,17.00
2023-06-11T20:56:31.075Z,16.90
2023-06-11T20:58:57.973Z,16.70
2023-06-11T21:01:24.862Z,16.60
2023-06-11T21:03:51.708Z,16.50
2023-06-11T21:08:45.808Z,16.50
2023-06-11T21:11:13.965Z,16.40
2023-06-11T21:23:29.871Z,16.60
2023-06-11T21:45:39.656Z,16.60
2023-06-11T22:05:19.104Z,16.90
2023-06-11T22:15:11.266Z,17.00
2023-06-11T22:17:40.326Z,16.90
2023-06-11T22:20:08.351Z,16.90
2023-06-11T22:22:39.325Z,16.90
2023-06-11T22:25:09.117Z,17.00
2023-06-11T22:30:03.537Z,17.00
2023-06-11T22:32:30.600Z,16.90
2023-06-11T22:34:57.355Z,16.90
2023-06-11T22:37:24.128Z,16.90
2023-06-11T22:42:19.070Z,16.80
2023-06-11T22:47:12.891Z,16.80
2023-06-11T22:49:39.898Z,16.70
2023-06-11T22:52:08.808Z,16.60
2023-06-11T22:54:39.542Z,16.40
2023-06-11T22:57:09.757Z,16.50
2023-06-11T22:59:36.601Z,16.50
2023-06-11T23:04:34.097Z,16.40
2023-06-11T23:14:25.122Z,16.00
2023-06-11T23:16:52.728Z,15.90
2023-06-11T23:21:57.682Z,15.80
2023-06-11T23:24:27.887Z,15.70
2023-06-11T23:27:03.785Z,15.70
2023-06-11T23:29:30.851Z,15.60
2023-06-11T23:34:25.033Z,15.60
2023-06-11T23:36:51.780Z,15.50
2023-06-11T23:41:47.262Z,15.50
2023-06-11T23:44:13.959Z,15.50
2023-06-11T23:46:40.821Z,15.50
2023-06-11T23:49:07.868Z,15.30
2023-06-11T23:51:34.561Z,15.40
2023-06-11T23:54:01.230Z,15.40
